Startpagina
METAR-TAF:

METAR-TAF

Vliegvelden :

Saint-Etienne, Frankrijk

breedte: 45-32N, lengte: 004-18E, hoogte: 404 m

Actueel weer

Dit bericht is 33 minuten geleden gemaakt, om 19:30 UTC
Wind 3 kt uit variabele richting
Temperatuur 8°C
Vochtigheid 66%
Druk 1030 hPa
Zicht 10 km of meer
geen wolken onder 1500 m en geen cumulonimbus

METAR: LFMH 231930Z AUTO VRB03KT CAVOK 08/02 Q1030 NOSIG

Tijdstip: 21:03 (20:03 UTC)

Verwachting

Dit bericht is 6 uur en het 3 minuten geleden gemaakt, om 14:00 UTC
Verwachting geldig van 23 om 15 UTC tot 24 om 15 UTC
Wind 2 kt uit variabele richting
Zicht 10 km of meer
geen wolken onder 1500 m en geen cumulonimbus
Wijzigt naar
van 23 om 21 UTC tot 23 om 23 UTC
Gebroken wolken op 3000 ft
Kans 30% :
Tijdelijke
van 24 om 01 UTC tot 24 om 07 UTC
Zicht: 3000 m
nevel
Wijzigt naar
van 24 om 07 UTC tot 24 om 09 UTC
Wind 8 kt uit het zuidzuidoosten

TAF: LFMH 231400Z 2315/2415 VRB02KT CAVOK BECMG 2321/2323 BKN030 PROB30 TEMPO 2401/2407 3000 BR BECMG 2407/2409 16008KT

Waarnemingen en weersverwachtingen van meer dan 4000 vliegvelden (METAR en TAF).

De beschikbare stations zijn de gele en rode punten op de kaart.

Ga met uw muis naar het station om de naam te zien.

Klik dan om waarnemingen en weersverwachtingen te zien.

kaart wijzigen: klik op de groene knoppen met een zwart kruis om in te zoomen, op de groene knop met een streepje om uit te zoomen of op de groene pijlen voor aangrenzende kaarten.


METAR-TAF: